createdAt,value
2019-03-30T00:00:57.706Z,7.03
2019-03-30T00:02:07.424Z,6.90
2019-03-30T00:03:13.962Z,6.37
2019-03-30T00:04:19.752Z,6.62
2019-03-30T00:05:26.655Z,7.28
2019-03-30T00:06:32.453Z,6.47
2019-03-30T00:07:38.461Z,6.80
2019-03-30T00:08:44.962Z,6.80
2019-03-30T00:09:51.256Z,6.87
2019-03-30T00:10:57.009Z,6.75
2019-03-30T00:12:03.503Z,7.22
2019-03-30T00:13:09.915Z,6.58
2019-03-30T00:14:17.513Z,6.80
2019-03-30T00:15:24.248Z,6.97
2019-03-30T00:16:30.490Z,6.85
2019-03-30T00:17:36.826Z,6.80
2019-03-30T00:18:42.890Z,7.03
2019-03-30T00:19:48.643Z,6.78
2019-03-30T00:20:54.689Z,6.47
2019-03-30T00:22:01.386Z,6.15
2019-03-30T00:23:08.255Z,6.78
2019-03-30T00:24:14.642Z,6.67
2019-03-30T00:25:20.925Z,7.05
2019-03-30T00:26:27.246Z,6.55
2019-03-30T00:27:34.169Z,6.80
2019-03-30T00:28:40.038Z,6.50
2019-03-30T00:29:46.352Z,6.12
2019-03-30T00:30:53.150Z,6.50
2019-03-30T00:32:00.322Z,6.90
2019-03-30T00:33:06.820Z,6.40
2019-03-30T00:34:12.315Z,6.60
2019-03-30T00:35:18.017Z,6.28
2019-03-30T00:36:24.267Z,6.55
2019-03-30T00:37:31.190Z,6.65
2019-03-30T00:38:37.943Z,6.47
2019-03-30T00:39:43.699Z,6.15
2019-03-30T00:40:49.811Z,6.40
2019-03-30T00:41:56.646Z,6.40
2019-03-30T00:43:02.929Z,6.35
2019-03-30T00:44:08.656Z,6.10
2019-03-30T00:45:14.397Z,6.45
2019-03-30T00:46:21.606Z,6.42
2019-03-30T00:47:28.284Z,6.30
2019-03-30T00:48:35.267Z,6.00
2019-03-30T00:49:48.959Z,6.08
2019-03-30T00:50:50.098Z,6.25
2019-03-30T00:51:57.711Z,7.12
2019-03-30T00:53:05.229Z,6.67
2019-03-30T00:54:12.934Z,6.15
2019-03-30T00:55:19.061Z,6.78
2019-03-30T00:56:25.452Z,5.92
2019-03-30T00:57:32.058Z,5.90
2019-03-30T00:58:37.878Z,5.95
2019-03-30T00:59:44.361Z,6.10
2019-03-30T01:00:50.234Z,6.10
2019-03-30T01:01:57.047Z,5.95
2019-03-30T01:03:02.928Z,5.55
2019-03-30T01:04:09.820Z,6.00
2019-03-30T01:05:16.051Z,6.22
2019-03-30T01:06:22.340Z,5.62
2019-03-30T01:07:28.440Z,6.37
2019-03-30T01:08:35.517Z,5.78
2019-03-30T01:09:42.160Z,5.60
2019-03-30T01:10:48.581Z,5.72
2019-03-30T01:11:55.198Z,5.87
2019-03-30T01:13:00.769Z,6.22
2019-03-30T01:14:06.394Z,5.85
2019-03-30T01:15:12.488Z,5.83
2019-03-30T01:16:18.653Z,6.05
2019-03-30T01:17:24.813Z,5.62
2019-03-30T01:18:32.291Z,6.37
2019-03-30T01:19:38.051Z,5.97
2019-03-30T01:20:45.474Z,5.85
2019-03-30T01:21:52.369Z,5.97
2019-03-30T01:22:58.901Z,5.47
2019-03-30T01:24:05.289Z,5.85
2019-03-30T01:25:12.008Z,5.78
2019-03-30T01:26:18.616Z,5.78
2019-03-30T01:27:24.970Z,5.55
2019-03-30T01:28:32.048Z,5.80
2019-03-30T01:29:38.856Z,5.83
2019-03-30T01:30:45.226Z,6.90
2019-03-30T01:31:51.937Z,6.15
2019-03-30T01:32:57.583Z,5.75
2019-03-30T01:34:04.860Z,6.90
2019-03-30T01:35:10.996Z,6.22
2019-03-30T01:36:16.601Z,6.12
2019-03-30T01:37:24.503Z,6.50
2019-03-30T01:38:32.172Z,6.35
2019-03-30T01:39:37.972Z,5.80
2019-03-30T01:40:44.794Z,6.20
2019-03-30T01:41:51.110Z,6.25
2019-03-30T01:42:56.975Z,6.67
2019-03-30T01:44:02.662Z,5.72
2019-03-30T01:45:09.346Z,6.00
2019-03-30T01:46:16.144Z,6.53
2019-03-30T01:47:22.499Z,6.12
2019-03-30T01:48:29.128Z,5.85
2019-03-30T01:49:35.120Z,6.00
2019-03-30T01:50:41.726Z,6.70
2019-03-30T01:51:49.563Z,6.00
2019-03-30T01:52:56.441Z,6.15
2019-03-30T01:54:03.263Z,6.15
2019-03-30T01:55:09.661Z,6.08
2019-03-30T01:56:16.883Z,5.55
2019-03-30T01:57:23.453Z,6.20
2019-03-30T01:58:29.461Z,5.55
2019-03-30T01:59:35.839Z,6.12
2019-03-30T02:00:42.135Z,5.35
2019-03-30T02:01:47.887Z,6.25
2019-03-30T02:02:54.191Z,6.20
2019-03-30T02:04:00.800Z,6.20
2019-03-30T02:05:07.059Z,6.10
2019-03-30T02:06:13.340Z,6.33
2019-03-30T02:07:19.414Z,6.50
2019-03-30T02:08:26.185Z,6.00
2019-03-30T02:09:32.119Z,6.37
2019-03-30T02:10:47.107Z,6.17
2019-03-30T02:11:52.870Z,6.08
2019-03-30T02:12:58.705Z,6.03
2019-03-30T02:14:05.181Z,6.42
2019-03-30T02:15:11.414Z,6.60
2019-03-30T02:16:18.556Z,6.17
2019-03-30T02:17:24.892Z,6.15
2019-03-30T02:18:31.492Z,5.85
2019-03-30T02:19:37.300Z,5.80
2019-03-30T02:20:44.578Z,5.53
2019-03-30T02:21:50.607Z,6.78
2019-03-30T02:22:58.062Z,5.97
2019-03-30T02:24:04.096Z,6.95
2019-03-30T02:25:10.837Z,6.37
2019-03-30T02:26:17.411Z,6.50
2019-03-30T02:27:23.258Z,6.35
2019-03-30T02:28:30.876Z,6.45
2019-03-30T02:29:37.134Z,6.50
2019-03-30T02:30:43.764Z,6.70
2019-03-30T02:31:49.792Z,5.92
2019-03-30T02:32:56.126Z,6.20
2019-03-30T02:34:03.026Z,6.67
2019-03-30T02:35:08.830Z,5.92
2019-03-30T02:36:16.299Z,5.97
2019-03-30T02:37:22.031Z,6.85
2019-03-30T02:38:28.106Z,7.05
2019-03-30T02:39:33.815Z,6.03
2019-03-30T02:40:41.194Z,6.40
2019-03-30T02:41:47.115Z,6.20
2019-03-30T02:42:53.870Z,6.03
2019-03-30T02:44:00.596Z,6.50
2019-03-30T02:45:06.441Z,6.33
2019-03-30T02:46:14.113Z,6.50
2019-03-30T02:47:20.720Z,7.25
2019-03-30T02:48:28.313Z,6.65
2019-03-30T02:49:35.133Z,7.10
2019-03-30T02:50:50.029Z,6.65
2019-03-30T02:51:49.556Z,7.15
2019-03-30T02:52:55.295Z,7.15
2019-03-30T02:54:01.870Z,6.83
2019-03-30T02:55:12.445Z,7.05
2019-03-30T02:56:16.047Z,7.05
2019-03-30T02:57:22.785Z,7.10
2019-03-30T02:58:28.959Z,7.08
2019-03-30T02:59:35.157Z,7.45
2019-03-30T03:00:42.110Z,6.67
2019-03-30T03:01:48.585Z,7.35
2019-03-30T03:02:55.966Z,7.17
2019-03-30T03:04:02.203Z,7.45
2019-03-30T03:05:08.672Z,6.78
2019-03-30T03:06:15.394Z,7.45
2019-03-30T03:07:21.646Z,7.28
2019-03-30T03:08:28.965Z,7.70
2019-03-30T03:09:35.324Z,7.45
2019-03-30T03:10:41.118Z,7.55
2019-03-30T03:11:48.312Z,7.50
2019-03-30T03:12:54.104Z,6.90
2019-03-30T03:14:00.082Z,8.15
2019-03-30T03:15:05.946Z,7.90
2019-03-30T03:16:11.767Z,7.10
2019-03-30T03:17:18.942Z,6.78
2019-03-30T03:18:24.777Z,7.22
2019-03-30T03:19:31.925Z,6.95
2019-03-30T03:20:38.835Z,7.25
2019-03-30T03:21:44.572Z,7.33
2019-03-30T03:22:51.990Z,7.12
2019-03-30T03:23:58.923Z,7.45
2019-03-30T03:25:05.597Z,7.50
2019-03-30T03:26:11.022Z,7.10
2019-03-30T03:27:18.437Z,7.33
2019-03-30T03:28:25.292Z,7.42
2019-03-30T03:29:32.582Z,7.30
2019-03-30T03:30:38.937Z,7.20
2019-03-30T03:31:45.278Z,7.28
2019-03-30T03:32:52.910Z,7.37
2019-03-30T03:33:58.483Z,7.08
2019-03-30T03:35:04.298Z,7.35
2019-03-30T03:36:11.135Z,7.47
2019-03-30T03:37:17.752Z,7.03
2019-03-30T03:38:24.492Z,7.97
2019-03-30T03:39:32.353Z,7.80
2019-03-30T03:40:39.302Z,7.90
2019-03-30T03:41:44.982Z,7.22
2019-03-30T03:42:52.757Z,7.62
2019-03-30T03:44:00.599Z,8.03
2019-03-30T03:45:07.284Z,7.47
2019-03-30T03:46:13.411Z,6.97
2019-03-30T03:47:20.604Z,7.55
2019-03-30T03:48:27.328Z,7.12
2019-03-30T03:49:33.435Z,7.70
2019-03-30T03:50:43.305Z,7.53
2019-03-30T03:51:49.296Z,7.30
2019-03-30T03:52:56.484Z,7.35
2019-03-30T03:54:02.633Z,7.55
2019-03-30T03:55:08.803Z,7.08
2019-03-30T03:56:17.490Z,7.10
2019-03-30T03:57:27.285Z,8.40
2019-03-30T03:58:35.517Z,7.97
2019-03-30T03:59:43.574Z,8.25
2019-03-30T04:00:51.115Z,8.40
2019-03-30T04:01:58.499Z,7.65
2019-03-30T04:03:05.245Z,7.17
2019-03-30T04:04:13.696Z,7.62
2019-03-30T04:05:21.510Z,8.20
2019-03-30T04:06:28.677Z,7.92
2019-03-30T04:07:37.314Z,7.97
2019-03-30T04:08:46.810Z,8.13
2019-03-30T04:09:56.598Z,7.87
2019-03-30T04:11:04.590Z,7.90
2019-03-30T04:12:11.929Z,8.70
2019-03-30T04:13:19.373Z,7.92
2019-03-30T04:14:27.278Z,7.80
2019-03-30T04:15:33.022Z,7.78
2019-03-30T04:16:40.394Z,7.78
2019-03-30T04:17:46.809Z,6.97
2019-03-30T04:18:52.821Z,7.92
2019-03-30T04:19:59.438Z,7.80
2019-03-30T04:21:05.471Z,7.70
2019-03-30T04:22:12.360Z,7.95
2019-03-30T04:23:18.194Z,7.95
2019-03-30T04:24:24.687Z,8.00
2019-03-30T04:25:30.995Z,8.25
2019-03-30T04:26:37.598Z,7.15
2019-03-30T04:27:44.416Z,7.75
2019-03-30T04:28:51.234Z,8.13
2019-03-30T04:29:58.415Z,7.50
2019-03-30T04:31:04.320Z,7.80
2019-03-30T04:32:10.896Z,9.08
2019-03-30T04:33:18.448Z,8.10
2019-03-30T04:34:24.725Z,8.05
2019-03-30T04:35:30.793Z,9.33
2019-03-30T04:36:37.251Z,7.90
2019-03-30T04:37:44.394Z,8.70
2019-03-30T04:38:52.195Z,9.20
2019-03-30T04:39:58.957Z,9.10
2019-03-30T04:41:04.978Z,8.45
2019-03-30T04:42:11.259Z,8.43
2019-03-30T04:43:18.065Z,8.50
2019-03-30T04:44:27.480Z,7.70
2019-03-30T04:45:32.918Z,8.23
2019-03-30T04:46:39.349Z,8.58
2019-03-30T04:47:45.372Z,7.20
2019-03-30T04:48:51.871Z,8.70
2019-03-30T04:49:58.830Z,8.45
2019-03-30T04:51:05.178Z,8.05
2019-03-30T04:52:12.483Z,9.28
2019-03-30T04:53:19.315Z,8.83
2019-03-30T04:54:25.622Z,8.83
2019-03-30T04:55:32.269Z,8.80
2019-03-30T04:56:38.812Z,8.70
2019-03-30T04:57:49.702Z,8.75
2019-03-30T04:58:54.996Z,8.98
2019-03-30T05:00:01.807Z,9.58
2019-03-30T05:01:08.643Z,8.98
2019-03-30T05:02:14.920Z,8.65
2019-03-30T05:03:22.483Z,8.80
2019-03-30T05:04:29.230Z,8.98
2019-03-30T05:05:35.258Z,9.33
2019-03-30T05:06:41.357Z,9.70
2019-03-30T05:07:47.983Z,8.58
2019-03-30T05:08:54.702Z,9.63
2019-03-30T05:10:00.614Z,9.58
2019-03-30T05:11:08.006Z,9.83
2019-03-30T05:12:14.769Z,9.40
2019-03-30T05:13:20.349Z,9.90
2019-03-30T05:14:26.701Z,9.73
2019-03-30T05:15:32.890Z,9.38
2019-03-30T05:16:40.672Z,9.95
2019-03-30T05:17:48.282Z,9.68
2019-03-30T05:18:54.000Z,9.70
2019-03-30T05:20:00.906Z,10.03
2019-03-30T05:21:08.473Z,9.15
2019-03-30T05:22:16.597Z,9.38
2019-03-30T05:23:22.175Z,9.78
2019-03-30T05:24:28.579Z,9.65
2019-03-30T05:25:36.195Z,9.65
2019-03-30T05:26:42.425Z,9.45
2019-03-30T05:27:48.184Z,9.53
2019-03-30T05:28:54.754Z,9.43
2019-03-30T05:30:00.805Z,9.78
2019-03-30T05:31:07.726Z,9.65
2019-03-30T05:32:15.166Z,9.70
2019-03-30T05:33:21.470Z,9.58
2019-03-30T05:34:28.224Z,9.50
2019-03-30T05:35:34.710Z,9.88
2019-03-30T05:36:40.392Z,9.40
2019-03-30T05:37:47.662Z,9.78
2019-03-30T05:38:53.883Z,9.53
2019-03-30T05:39:59.655Z,8.90
2019-03-30T05:41:05.400Z,9.45
2019-03-30T05:42:12.138Z,9.20
2019-03-30T05:43:19.116Z,8.83
2019-03-30T05:44:25.759Z,9.10
2019-03-30T05:45:32.312Z,9.45
2019-03-30T05:46:38.049Z,9.30
2019-03-30T05:47:43.933Z,9.53
2019-03-30T05:48:50.645Z,9.10
2019-03-30T05:49:56.915Z,8.68
2019-03-30T05:51:03.550Z,8.93
2019-03-30T05:52:09.507Z,9.48
2019-03-30T05:53:15.498Z,8.48
2019-03-30T05:54:21.786Z,8.33
2019-03-30T05:55:28.662Z,8.63
2019-03-30T05:56:34.384Z,9.48
2019-03-30T05:57:41.179Z,8.63
2019-03-30T05:58:48.213Z,8.75
2019-03-30T05:59:55.991Z,9.13
2019-03-30T06:01:02.872Z,8.53
2019-03-30T06:02:09.066Z,9.10
2019-03-30T06:03:15.381Z,10.20
2019-03-30T06:04:22.332Z,9.93
2019-03-30T06:05:29.255Z,9.40
2019-03-30T06:06:35.595Z,9.30
2019-03-30T06:07:42.970Z,9.05
2019-03-30T06:08:48.424Z,9.43
2019-03-30T06:09:55.060Z,9.10
2019-03-30T06:11:00.905Z,9.15
2019-03-30T06:12:07.778Z,9.85
2019-03-30T06:13:13.976Z,8.93
2019-03-30T06:14:21.374Z,9.08
2019-03-30T06:15:27.134Z,9.08
2019-03-30T06:16:34.039Z,8.68
2019-03-30T06:17:40.392Z,8.95
2019-03-30T06:18:46.164Z,9.20
2019-03-30T06:19:53.210Z,9.38
2019-03-30T06:21:00.983Z,8.78
2019-03-30T06:22:06.744Z,9.05
2019-03-30T06:23:13.425Z,9.08
2019-03-30T06:24:19.402Z,8.93
2019-03-30T06:25:25.065Z,8.80
2019-03-30T06:26:31.538Z,9.00
2019-03-30T06:27:38.321Z,8.58
2019-03-30T06:28:44.505Z,8.38
2019-03-30T06:30:26.343Z,8.65
2019-03-30T06:31:32.495Z,8.88
2019-03-30T06:32:38.832Z,9.30
2019-03-30T06:33:44.596Z,8.93
2019-03-30T06:34:50.362Z,8.88
2019-03-30T06:35:57.155Z,8.78
2019-03-30T06:37:03.397Z,9.15
2019-03-30T06:38:09.563Z,9.35
2019-03-30T06:39:15.984Z,9.05
2019-03-30T06:40:21.736Z,8.90
2019-03-30T06:41:28.570Z,8.70
2019-03-30T06:42:35.255Z,8.70
2019-03-30T06:43:42.656Z,8.63
2019-03-30T06:44:49.255Z,8.73
2019-03-30T06:45:56.056Z,8.60
2019-03-30T06:47:02.271Z,8.93
2019-03-30T06:48:09.011Z,8.33
2019-03-30T06:49:15.461Z,8.15
2019-03-30T06:50:22.447Z,8.45
2019-03-30T06:51:29.219Z,8.88
2019-03-30T06:52:36.201Z,8.68
2019-03-30T06:53:41.955Z,8.45
2019-03-30T06:54:48.404Z,8.23
2019-03-30T06:55:54.956Z,9.13
2019-03-30T06:57:00.844Z,8.65
2019-03-30T06:58:07.000Z,8.00
2019-03-30T06:59:13.110Z,8.20
2019-03-30T07:00:20.410Z,8.68
2019-03-30T07:01:26.810Z,8.70
2019-03-30T07:02:33.331Z,8.10
2019-03-30T07:03:39.093Z,8.35
2019-03-30T07:04:46.850Z,8.70
2019-03-30T07:05:55.628Z,8.18
2019-03-30T07:07:03.350Z,8.63
2019-03-30T07:08:13.122Z,8.23
2019-03-30T07:09:22.407Z,9.40
2019-03-30T07:10:28.248Z,8.60
2019-03-30T07:11:37.362Z,8.83
2019-03-30T07:12:45.245Z,8.75
2019-03-30T07:13:53.323Z,8.98
2019-03-30T07:15:02.325Z,8.90
2019-03-30T07:16:09.428Z,8.35
2019-03-30T07:17:16.964Z,8.40
2019-03-30T07:18:22.995Z,8.73
2019-03-30T07:19:32.852Z,8.73
2019-03-30T07:20:39.591Z,8.75
2019-03-30T07:21:47.002Z,8.90
2019-03-30T07:22:53.702Z,8.80
2019-03-30T07:24:00.179Z,9.15
2019-03-30T07:25:06.320Z,9.20
2019-03-30T07:26:13.389Z,9.18
2019-03-30T07:27:20.330Z,8.80
2019-03-30T07:28:26.678Z,9.43
2019-03-30T07:29:32.633Z,8.20
2019-03-30T07:30:38.678Z,8.83
2019-03-30T07:31:45.791Z,8.90
2019-03-30T07:32:52.167Z,8.58
2019-03-30T07:33:58.927Z,8.88
2019-03-30T07:35:04.806Z,9.28
2019-03-30T07:36:10.547Z,8.68
2019-03-30T07:37:16.620Z,9.00
2019-03-30T07:38:22.524Z,8.98
2019-03-30T07:39:28.455Z,9.28
2019-03-30T07:40:35.024Z,9.43
2019-03-30T07:41:41.554Z,8.60
2019-03-30T07:42:48.736Z,8.73
2019-03-30T07:43:55.712Z,8.98
2019-03-30T07:45:02.114Z,8.43
2019-03-30T07:46:08.982Z,9.53
2019-03-30T07:47:15.369Z,8.98
2019-03-30T07:48:21.956Z,9.48
2019-03-30T07:49:28.172Z,8.98
2019-03-30T07:50:35.046Z,9.90
2019-03-30T07:51:41.342Z,9.33
2019-03-30T07:52:47.963Z,9.13
2019-03-30T07:53:55.386Z,9.38
2019-03-30T07:55:01.755Z,9.30
2019-03-30T07:56:08.967Z,9.03
2019-03-30T07:57:17.561Z,9.50
2019-03-30T07:58:23.552Z,9.35
2019-03-30T07:59:30.725Z,9.45
2019-03-30T08:00:36.719Z,9.43
2019-03-30T08:01:42.743Z,9.33
2019-03-30T08:02:49.392Z,8.80
2019-03-30T08:03:55.556Z,8.80
2019-03-30T08:05:02.939Z,9.88
2019-03-30T08:06:09.311Z,9.08
2019-03-30T08:07:15.361Z,9.05
2019-03-30T08:08:21.364Z,8.88
2019-03-30T08:09:27.851Z,8.83
2019-03-30T08:10:33.908Z,9.63
2019-03-30T08:11:39.986Z,9.58
2019-03-30T08:12:47.455Z,9.65
2019-03-30T08:13:54.828Z,9.28
2019-03-30T08:15:01.144Z,9.60
2019-03-30T08:16:07.955Z,9.33
2019-03-30T08:17:13.548Z,9.73
2019-03-30T08:18:20.082Z,9.70
2019-03-30T08:19:28.631Z,9.23
2019-03-30T08:20:34.372Z,9.75
2019-03-30T08:21:40.469Z,9.55
2019-03-30T08:22:46.728Z,9.35
2019-03-30T08:23:52.479Z,9.48
2019-03-30T08:24:58.265Z,8.80
2019-03-30T08:26:05.043Z,8.80
2019-03-30T08:27:11.164Z,9.83
2019-03-30T08:28:18.049Z,10.08
2019-03-30T08:29:26.013Z,9.20
2019-03-30T08:30:31.494Z,9.30
2019-03-30T08:31:37.269Z,8.50
2019-03-30T08:32:42.920Z,8.53
2019-03-30T08:33:48.862Z,9.65
2019-03-30T08:34:55.612Z,9.93
2019-03-30T08:36:03.001Z,9.53
2019-03-30T08:37:10.476Z,9.45
2019-03-30T08:38:17.274Z,9.33
2019-03-30T08:39:23.266Z,9.53
2019-03-30T08:40:32.380Z,9.00
2019-03-30T08:41:38.682Z,9.70
2019-03-30T08:42:45.631Z,9.43
2019-03-30T08:43:52.071Z,9.45
2019-03-30T08:44:58.746Z,9.78
2019-03-30T08:46:04.482Z,9.43
2019-03-30T08:47:10.799Z,9.18
2019-03-30T08:48:17.292Z,9.55
2019-03-30T08:49:24.809Z,9.73
2019-03-30T08:50:30.732Z,9.43
2019-03-30T08:51:36.388Z,9.58
2019-03-30T08:52:43.308Z,10.20
2019-03-30T08:53:54.761Z,9.98
2019-03-30T08:54:57.954Z,9.20
2019-03-30T08:56:04.348Z,10.08
2019-03-30T08:57:10.287Z,10.40
2019-03-30T08:58:16.725Z,9.98
2019-03-30T08:59:24.982Z,10.03
2019-03-30T09:00:49.067Z,9.98
2019-03-30T09:01:56.294Z,9.88
2019-03-30T09:03:01.878Z,9.20
2019-03-30T09:04:07.649Z,9.85
2019-03-30T09:05:14.957Z,9.13
2019-03-30T09:06:20.892Z,9.30
2019-03-30T09:07:27.405Z,9.23
2019-03-30T09:08:34.507Z,9.10
2019-03-30T09:09:41.022Z,9.05
2019-03-30T09:10:47.127Z,9.25
2019-03-30T09:11:52.951Z,9.03
2019-03-30T09:13:00.330Z,9.60
2019-03-30T09:14:06.998Z,10.05
2019-03-30T09:15:13.122Z,9.15
2019-03-30T09:16:20.128Z,9.20
2019-03-30T09:17:27.962Z,11.25
2019-03-30T09:18:35.193Z,10.53
2019-03-30T09:19:42.800Z,9.98
2019-03-30T09:20:49.133Z,9.78
2019-03-30T09:21:55.992Z,9.23
2019-03-30T09:23:02.941Z,9.43
2019-03-30T09:24:10.482Z,9.93
2019-03-30T09:25:16.271Z,9.45
2019-03-30T09:26:22.040Z,9.43
2019-03-30T09:27:28.100Z,9.45
2019-03-30T09:28:34.584Z,9.78
2019-03-30T09:29:41.110Z,9.95
2019-03-30T09:30:48.151Z,9.38
2019-03-30T09:31:54.463Z,9.43
2019-03-30T09:33:00.212Z,9.38
2019-03-30T09:34:07.853Z,8.40
2019-03-30T09:35:14.036Z,8.88
2019-03-30T09:36:20.068Z,9.28
2019-03-30T09:37:27.377Z,9.20
2019-03-30T09:38:35.228Z,9.33
2019-03-30T09:39:41.248Z,9.05
2019-03-30T09:40:48.396Z,8.88
2019-03-30T09:41:55.789Z,8.88
2019-03-30T09:43:02.602Z,8.85
2019-03-30T09:44:09.560Z,8.60
2019-03-30T09:45:15.455Z,8.40
2019-03-30T09:46:21.005Z,8.60
2019-03-30T09:47:28.301Z,8.83
2019-03-30T09:48:34.964Z,8.50
2019-03-30T09:49:42.823Z,8.40
2019-03-30T09:50:50.185Z,8.05
2019-03-30T09:51:57.066Z,7.90
2019-03-30T09:53:03.363Z,7.85
2019-03-30T09:54:22.793Z,7.90
2019-03-30T09:55:16.931Z,8.28
2019-03-30T09:56:22.646Z,8.15
2019-03-30T09:57:28.399Z,7.62
2019-03-30T09:58:34.384Z,7.53
2019-03-30T09:59:39.799Z,7.97
2019-03-30T10:00:46.096Z,8.68
2019-03-30T10:01:52.871Z,8.08
2019-03-30T10:02:58.620Z,7.72
2019-03-30T10:04:05.008Z,7.78
2019-03-30T10:05:11.493Z,7.60
2019-03-30T10:06:18.700Z,8.30
2019-03-30T10:07:24.621Z,7.83
2019-03-30T10:08:31.035Z,9.13
2019-03-30T10:09:37.904Z,8.20
2019-03-30T10:10:43.515Z,7.80
2019-03-30T10:11:51.244Z,7.72
2019-03-30T10:12:57.010Z,8.40
2019-03-30T10:14:03.968Z,8.90
2019-03-30T10:15:10.406Z,7.67
2019-03-30T10:16:17.401Z,7.53
2019-03-30T10:17:24.900Z,7.83
2019-03-30T10:18:30.914Z,8.25
2019-03-30T10:19:38.445Z,8.00
2019-03-30T10:20:44.276Z,7.72
2019-03-30T10:21:50.915Z,8.30
2019-03-30T10:22:56.321Z,8.28
2019-03-30T10:24:03.360Z,8.90
2019-03-30T10:25:09.358Z,7.83
2019-03-30T10:26:15.610Z,7.78
2019-03-30T10:27:21.991Z,8.28
2019-03-30T10:28:28.568Z,8.88
2019-03-30T10:29:35.672Z,8.95
2019-03-30T10:30:42.745Z,7.80
2019-03-30T10:31:48.794Z,7.62
2019-03-30T10:32:56.281Z,8.53
2019-03-30T10:34:02.017Z,8.03
2019-03-30T10:35:07.988Z,8.28
2019-03-30T10:36:14.602Z,8.05
2019-03-30T10:37:21.930Z,8.38
2019-03-30T10:38:28.646Z,8.10
2019-03-30T10:39:35.633Z,8.63
2019-03-30T10:40:41.785Z,9.43
2019-03-30T10:41:48.285Z,8.65
2019-03-30T10:42:55.953Z,9.28
2019-03-30T10:44:03.458Z,8.75
2019-03-30T10:45:10.085Z,9.28
2019-03-30T10:46:16.760Z,8.33
2019-03-30T10:47:22.987Z,8.73
2019-03-30T10:48:29.232Z,8.05
2019-03-30T10:49:35.564Z,9.13
2019-03-30T10:50:42.139Z,7.55
2019-03-30T10:51:48.475Z,8.35
2019-03-30T10:52:54.500Z,7.90
2019-03-30T10:54:01.525Z,8.10
2019-03-30T10:55:07.393Z,7.87
2019-03-30T10:56:13.445Z,7.92
2019-03-30T10:57:21.393Z,7.33
2019-03-30T10:58:28.159Z,7.60
2019-03-30T10:59:34.630Z,7.80
2019-03-30T11:00:41.941Z,7.55
2019-03-30T11:01:48.978Z,7.28
2019-03-30T11:02:54.715Z,7.08
2019-03-30T11:04:01.754Z,7.05
2019-03-30T11:05:07.778Z,6.80
2019-03-30T11:06:13.546Z,7.22
2019-03-30T11:07:19.812Z,7.20
2019-03-30T11:08:26.626Z,7.30
2019-03-30T11:09:32.403Z,7.40
2019-03-30T11:10:38.696Z,6.78
2019-03-30T11:11:46.004Z,6.83
2019-03-30T11:12:52.517Z,7.08
2019-03-30T11:13:58.667Z,6.60
2019-03-30T11:15:04.699Z,6.67
2019-03-30T11:16:11.985Z,6.45
2019-03-30T11:17:19.511Z,6.75
2019-03-30T11:18:25.325Z,6.78
2019-03-30T11:19:31.074Z,7.47
2019-03-30T11:20:38.265Z,6.83
2019-03-30T11:21:45.479Z,6.58
2019-03-30T11:22:51.550Z,6.53
2019-03-30T11:23:58.998Z,7.15
2019-03-30T11:25:08.518Z,6.22
2019-03-30T11:26:14.227Z,6.33
2019-03-30T11:27:20.243Z,6.58
2019-03-30T11:28:27.554Z,6.65
2019-03-30T11:29:34.513Z,6.97
2019-03-30T11:30:41.145Z,7.05
2019-03-30T11:31:47.181Z,7.00
2019-03-30T11:32:53.556Z,6.92
2019-03-30T11:34:00.924Z,7.50
2019-03-30T11:35:06.905Z,6.83
2019-03-30T11:36:14.427Z,7.12
2019-03-30T11:37:20.626Z,7.55
2019-03-30T11:38:26.627Z,7.15
2019-03-30T11:39:33.244Z,7.33
2019-03-30T11:40:39.651Z,6.80
2019-03-30T11:41:46.752Z,6.97
2019-03-30T11:42:52.540Z,6.83
2019-03-30T11:43:59.714Z,7.47
2019-03-30T11:45:05.611Z,7.00
2019-03-30T11:46:11.356Z,6.70
2019-03-30T11:47:17.474Z,6.75
2019-03-30T11:48:26.720Z,7.22
2019-03-30T11:49:34.469Z,7.53
2019-03-30T11:50:41.292Z,7.28
2019-03-30T11:51:47.722Z,6.37
2019-03-30T11:52:54.631Z,6.92
2019-03-30T11:54:00.638Z,7.12
2019-03-30T11:55:20.636Z,7.85
2019-03-30T11:56:14.789Z,7.22
2019-03-30T11:57:22.172Z,7.12
2019-03-30T11:58:28.568Z,7.03
2019-03-30T11:59:35.092Z,7.30
2019-03-30T12:00:42.143Z,7.28
2019-03-30T12:01:49.101Z,6.67
2019-03-30T12:02:55.288Z,7.45
2019-03-30T12:04:03.519Z,7.05
2019-03-30T12:05:09.411Z,7.03
2019-03-30T12:06:15.204Z,8.00
2019-03-30T12:07:22.033Z,6.87
2019-03-30T12:08:28.693Z,6.50
2019-03-30T12:09:35.244Z,6.78
2019-03-30T12:10:41.462Z,6.83
2019-03-30T12:11:47.700Z,7.58
2019-03-30T12:12:53.698Z,7.12
2019-03-30T12:14:00.714Z,8.18
2019-03-30T12:15:06.907Z,7.72
2019-03-30T12:16:13.433Z,7.28
2019-03-30T12:17:20.497Z,7.50
2019-03-30T12:18:27.429Z,7.60
2019-03-30T12:19:34.056Z,6.78
2019-03-30T12:20:40.116Z,7.70
2019-03-30T12:21:46.637Z,7.40
2019-03-30T12:22:53.458Z,7.65
2019-03-30T12:23:59.529Z,7.05
2019-03-30T12:25:06.814Z,6.75
2019-03-30T12:26:12.563Z,7.42
2019-03-30T12:27:18.852Z,7.05
2019-03-30T12:28:25.600Z,6.83
2019-03-30T12:29:31.718Z,7.15
2019-03-30T12:30:38.116Z,6.62
2019-03-30T12:31:44.606Z,6.80
2019-03-30T12:32:50.417Z,7.22
2019-03-30T12:33:56.829Z,6.83
2019-03-30T12:35:03.342Z,6.70
2019-03-30T12:36:10.248Z,6.65
2019-03-30T12:37:17.638Z,6.65
2019-03-30T12:38:24.609Z,6.47
2019-03-30T12:39:30.616Z,6.03
2019-03-30T12:40:37.553Z,6.70
2019-03-30T12:41:44.993Z,6.85
2019-03-30T12:42:50.695Z,6.85
2019-03-30T12:43:57.326Z,7.50
2019-03-30T12:45:03.871Z,6.47
2019-03-30T12:46:10.465Z,6.25
2019-03-30T12:47:17.070Z,6.55
2019-03-30T12:48:26.948Z,7.00
2019-03-30T12:49:34.018Z,7.10
2019-03-30T12:50:40.398Z,6.92
2019-03-30T12:51:47.221Z,7.00
2019-03-30T12:52:54.705Z,6.97
2019-03-30T12:54:01.183Z,7.40
2019-03-30T12:55:07.090Z,7.20
2019-03-30T12:56:14.332Z,7.58
2019-03-30T12:57:19.993Z,6.47
2019-03-30T12:58:27.745Z,7.17
2019-03-30T12:59:35.298Z,7.10
2019-03-30T13:00:42.382Z,7.75
2019-03-30T13:01:48.762Z,7.92
2019-03-30T13:02:56.204Z,7.25
2019-03-30T13:04:02.760Z,7.08
2019-03-30T13:05:09.094Z,7.50
2019-03-30T13:06:15.247Z,7.65
2019-03-30T13:07:21.480Z,7.55
2019-03-30T13:08:27.691Z,7.50
2019-03-30T13:09:35.159Z,7.67
2019-03-30T13:10:45.226Z,8.00
2019-03-30T13:11:49.417Z,7.28
2019-03-30T13:12:56.945Z,7.65
2019-03-30T13:14:03.003Z,7.78
2019-03-30T13:15:10.206Z,7.05
2019-03-30T13:16:16.827Z,7.55
2019-03-30T13:17:23.425Z,8.35
2019-03-30T13:18:30.910Z,8.08
2019-03-30T13:19:37.198Z,7.83
2019-03-30T13:20:43.522Z,8.23
2019-03-30T13:21:52.904Z,8.18
2019-03-30T13:22:57.953Z,7.28
2019-03-30T13:24:05.691Z,7.40
2019-03-30T13:25:11.415Z,8.25
2019-03-30T13:26:16.828Z,7.08
2019-03-30T13:27:23.072Z,8.13
2019-03-30T13:28:29.411Z,7.95
2019-03-30T13:29:36.029Z,7.97
2019-03-30T13:30:42.372Z,8.23
2019-03-30T13:31:49.187Z,7.60
2019-03-30T13:32:55.730Z,7.65
2019-03-30T13:34:02.603Z,7.72
2019-03-30T13:35:08.863Z,7.67
2019-03-30T13:36:15.481Z,7.62
2019-03-30T13:37:23.195Z,7.28
2019-03-30T13:38:30.015Z,8.13
2019-03-30T13:39:37.556Z,7.37
2019-03-30T13:40:44.070Z,7.90
2019-03-30T13:41:50.715Z,8.38
2019-03-30T13:42:58.422Z,8.28
2019-03-30T13:44:07.233Z,9.35
2019-03-30T13:45:14.124Z,8.25
2019-03-30T13:46:19.670Z,8.25
2019-03-30T13:47:26.659Z,8.25
2019-03-30T13:48:33.172Z,8.68
2019-03-30T13:49:39.240Z,10.08
2019-03-30T13:50:46.066Z,9.13
2019-03-30T13:51:53.711Z,14.20
2019-03-30T13:52:59.682Z,12.65
2019-03-30T13:54:05.493Z,10.70
2019-03-30T13:55:11.635Z,9.83
2019-03-30T13:56:17.778Z,8.80
2019-03-30T13:57:24.407Z,9.00
2019-03-30T13:58:32.005Z,9.28
2019-03-30T13:59:38.033Z,9.43
2019-03-30T14:00:44.868Z,9.18
2019-03-30T14:01:51.766Z,9.53
2019-03-30T14:02:58.725Z,9.93
2019-03-30T14:04:05.325Z,8.88
2019-03-30T14:05:11.153Z,9.70
2019-03-30T14:06:17.446Z,9.33
2019-03-30T14:07:23.125Z,9.25
2019-03-30T14:08:29.134Z,9.05
2019-03-30T14:09:35.684Z,8.45
2019-03-30T14:10:41.655Z,8.30
2019-03-30T14:11:47.448Z,8.68
2019-03-30T14:12:54.097Z,8.78
2019-03-30T14:14:00.258Z,8.30
2019-03-30T14:15:09.204Z,9.85
2019-03-30T14:16:13.829Z,9.13
2019-03-30T14:17:20.225Z,8.30
2019-03-30T14:18:27.271Z,8.08
2019-03-30T14:19:33.580Z,8.45
2019-03-30T14:20:40.268Z,8.53
2019-03-30T14:21:47.159Z,8.85
2019-03-30T14:22:52.623Z,9.80
2019-03-30T14:23:59.891Z,8.98
2019-03-30T14:25:05.651Z,8.95
2019-03-30T14:26:11.971Z,9.23
2019-03-30T14:27:17.658Z,8.78
2019-03-30T14:28:24.746Z,9.18
2019-03-30T14:29:31.719Z,8.50
2019-03-30T14:30:38.612Z,8.18
2019-03-30T14:31:44.961Z,8.80
2019-03-30T14:32:52.314Z,9.15
2019-03-30T14:33:58.060Z,8.48
2019-03-30T14:35:04.629Z,8.88
2019-03-30T14:36:10.598Z,9.38
2019-03-30T14:37:17.704Z,8.93
2019-03-30T14:38:23.636Z,8.90
2019-03-30T14:39:30.058Z,8.58
2019-03-30T14:40:36.331Z,9.05
2019-03-30T14:41:42.970Z,9.05
2019-03-30T14:42:49.456Z,9.35
2019-03-30T14:43:55.416Z,9.53
2019-03-30T14:45:02.636Z,9.13
2019-03-30T14:46:09.385Z,9.18
2019-03-30T14:47:15.896Z,9.45
2019-03-30T14:48:22.521Z,8.63